sensor_id;sensor_type;location;lat;lon;timestamp;P1;durP1;ratioP1;P2;durP2;ratioP2
12451;SDS011;6291;48.924;12.204;2023-07-20T00:00:52;3.83;;;2.10;;
12451;SDS011;6291;48.924;12.204;2023-07-20T00:05:55;2.60;;;2.00;;
12451;SDS011;6291;48.924;12.204;2023-07-20T00:10:58;4.15;;;2.42;;
12451;SDS011;6291;48.924;12.204;2023-07-20T00:16:03;4.00;;;2.40;;
12451;SDS011;6291;48.924;12.204;2023-07-20T00:21:07;3.90;;;2.27;;
12451;SDS011;6291;48.924;12.204;2023-07-20T00:26:10;3.67;;;2.20;;
12451;SDS011;6291;48.924;12.204;2023-07-20T00:31:15;3.88;;;2.10;;
12451;SDS011;6291;48.924;12.204;2023-07-20T00:36:19;3.60;;;2.23;;
12451;SDS011;6291;48.924;12.204;2023-07-20T00:41:23;3.13;;;2.33;;
12451;SDS011;6291;48.924;12.204;2023-07-20T00:46:27;2.70;;;2.17;;
12451;SDS011;6291;48.924;12.204;2023-07-20T00:51:31;3.28;;;2.30;;
12451;SDS011;6291;48.924;12.204;2023-07-20T00:56:36;4.07;;;2.37;;
12451;SDS011;6291;48.924;12.204;2023-07-20T01:01:41;3.58;;;2.40;;
12451;SDS011;6291;48.924;12.204;2023-07-20T01:06:45;3.70;;;2.35;;
12451;SDS011;6291;48.924;12.204;2023-07-20T01:11:57;3.80;;;2.20;;
12451;SDS011;6291;48.924;12.204;2023-07-20T01:17:09;4.17;;;2.47;;
12451;SDS011;6291;48.924;12.204;2023-07-20T01:22:17;3.45;;;2.40;;
12451;SDS011;6291;48.924;12.204;2023-07-20T01:33:14;6.90;;;2.65;;
12451;SDS011;6291;48.924;12.204;2023-07-20T01:38:19;3.17;;;2.20;;
12451;SDS011;6291;48.924;12.204;2023-07-20T01:43:24;4.28;;;2.50;;
12451;SDS011;6291;48.924;12.204;2023-07-20T01:48:28;4.15;;;2.30;;
12451;SDS011;6291;48.924;12.204;2023-07-20T01:53:34;3.28;;;2.42;;
12451;SDS011;6291;48.924;12.204;2023-07-20T01:58:37;3.25;;;2.42;;
12451;SDS011;6291;48.924;12.204;2023-07-20T02:03:42;5.72;;;2.60;;
12451;SDS011;6291;48.924;12.204;2023-07-20T02:08:45;3.95;;;2.60;;
12451;SDS011;6291;48.924;12.204;2023-07-20T02:13:49;3.95;;;2.60;;
12451;SDS011;6291;48.924;12.204;2023-07-20T02:18:53;3.75;;;2.50;;
12451;SDS011;6291;48.924;12.204;2023-07-20T02:23:58;3.33;;;2.23;;
12451;SDS011;6291;48.924;12.204;2023-07-20T02:29:02;4.70;;;2.20;;
12451;SDS011;6291;48.924;12.204;2023-07-20T02:34:07;3.23;;;2.50;;
12451;SDS011;6291;48.924;12.204;2023-07-20T02:39:11;5.60;;;2.70;;
12451;SDS011;6291;48.924;12.204;2023-07-20T02:44:14;3.53;;;2.47;;
12451;SDS011;6291;48.924;12.204;2023-07-20T02:49:19;3.30;;;2.42;;
12451;SDS011;6291;48.924;12.204;2023-07-20T02:54:22;6.35;;;2.65;;
12451;SDS011;6291;48.924;12.204;2023-07-20T02:59:25;3.65;;;2.70;;
12451;SDS011;6291;48.924;12.204;2023-07-20T03:04:30;2.80;;;2.40;;
12451;SDS011;6291;48.924;12.204;2023-07-20T03:09:33;3.55;;;2.55;;
12451;SDS011;6291;48.924;12.204;2023-07-20T03:14:37;3.47;;;2.55;;
12451;SDS011;6291;48.924;12.204;2023-07-20T03:19:41;3.33;;;2.33;;
12451;SDS011;6291;48.924;12.204;2023-07-20T03:24:45;4.05;;;2.60;;
12451;SDS011;6291;48.924;12.204;2023-07-20T03:29:48;3.72;;;2.22;;
12451;SDS011;6291;48.924;12.204;2023-07-20T03:34:53;3.85;;;2.40;;
12451;SDS011;6291;48.924;12.204;2023-07-20T03:39:57;3.83;;;2.30;;
12451;SDS011;6291;48.924;12.204;2023-07-20T03:45:00;4.18;;;2.47;;
12451;SDS011;6291;48.924;12.204;2023-07-20T03:50:08;3.35;;;2.45;;
12451;SDS011;6291;48.924;12.204;2023-07-20T03:55:12;2.63;;;2.20;;
12451;SDS011;6291;48.924;12.204;2023-07-20T04:00:15;2.55;;;2.05;;
12451;SDS011;6291;48.924;12.204;2023-07-20T04:05:21;3.85;;;2.17;;
12451;SDS011;6291;48.924;12.204;2023-07-20T04:10:24;4.67;;;2.40;;
12451;SDS011;6291;48.924;12.204;2023-07-20T04:15:28;3.58;;;2.20;;
12451;SDS011;6291;48.924;12.204;2023-07-20T04:20:32;3.50;;;2.20;;
12451;SDS011;6291;48.924;12.204;2023-07-20T04:25:36;3.60;;;2.20;;
12451;SDS011;6291;48.924;12.204;2023-07-20T04:30:43;3.27;;;2.17;;
12451;SDS011;6291;48.924;12.204;2023-07-20T04:35:49;3.60;;;2.40;;
12451;SDS011;6291;48.924;12.204;2023-07-20T04:40:58;3.65;;;2.20;;
12451;SDS011;6291;48.924;12.204;2023-07-20T04:46:04;4.22;;;2.17;;
12451;SDS011;6291;48.924;12.204;2023-07-20T04:51:11;3.10;;;2.00;;
12451;SDS011;6291;48.924;12.204;2023-07-20T04:56:15;3.97;;;2.00;;
12451;SDS011;6291;48.924;12.204;2023-07-20T05:01:19;3.47;;;2.00;;
12451;SDS011;6291;48.924;12.204;2023-07-20T05:06:23;3.35;;;2.00;;
12451;SDS011;6291;48.924;12.204;2023-07-20T05:11:27;4.63;;;2.00;;
12451;SDS011;6291;48.924;12.204;2023-07-20T05:16:31;4.30;;;1.97;;
12451;SDS011;6291;48.924;12.204;2023-07-20T05:21:40;2.50;;;1.60;;
12451;SDS011;6291;48.924;12.204;2023-07-20T05:26:44;4.23;;;2.07;;
12451;SDS011;6291;48.924;12.204;2023-07-20T05:31:47;4.90;;;2.45;;
12451;SDS011;6291;48.924;12.204;2023-07-20T05:36:52;3.33;;;1.80;;
12451;SDS011;6291;48.924;12.204;2023-07-20T05:41:55;2.88;;;1.88;;
12451;SDS011;6291;48.924;12.204;2023-07-20T05:46:58;3.67;;;1.90;;
12451;SDS011;6291;48.924;12.204;2023-07-20T05:52:03;2.80;;;1.80;;
12451;SDS011;6291;48.924;12.204;2023-07-20T05:57:07;2.90;;;2.07;;
12451;SDS011;6291;48.924;12.204;2023-07-20T06:02:11;5.93;;;1.90;;
12451;SDS011;6291;48.924;12.204;2023-07-20T06:07:15;2.88;;;1.90;;
12451;SDS011;6291;48.924;12.204;2023-07-20T06:12:19;2.90;;;1.75;;
12451;SDS011;6291;48.924;12.204;2023-07-20T06:17:22;3.08;;;1.90;;
12451;SDS011;6291;48.924;12.204;2023-07-20T06:22:27;4.07;;;2.20;;
12451;SDS011;6291;48.924;12.204;2023-07-20T06:27:30;4.85;;;2.17;;
12451;SDS011;6291;48.924;12.204;2023-07-20T06:32:34;2.38;;;1.75;;
12451;SDS011;6291;48.924;12.204;2023-07-20T06:37:39;2.72;;;1.80;;
12451;SDS011;6291;48.924;12.204;2023-07-20T06:42:42;4.60;;;2.35;;
12451;SDS011;6291;48.924;12.204;2023-07-20T06:47:48;2.90;;;1.98;;
12451;SDS011;6291;48.924;12.204;2023-07-20T06:52:53;2.90;;;1.90;;
12451;SDS011;6291;48.924;12.204;2023-07-20T06:57:59;3.13;;;1.90;;
12451;SDS011;6291;48.924;12.204;2023-07-20T07:03:02;4.53;;;2.20;;
12451;SDS011;6291;48.924;12.204;2023-07-20T07:08:07;2.63;;;1.90;;
12451;SDS011;6291;48.924;12.204;2023-07-20T07:13:10;4.30;;;1.80;;
12451;SDS011;6291;48.924;12.204;2023-07-20T07:18:14;3.40;;;2.30;;
12451;SDS011;6291;48.924;12.204;2023-07-20T07:23:19;3.80;;;1.80;;
12451;SDS011;6291;48.924;12.204;2023-07-20T07:28:22;2.83;;;1.65;;
12451;SDS011;6291;48.924;12.204;2023-07-20T07:33:26;4.73;;;2.00;;
12451;SDS011;6291;48.924;12.204;2023-07-20T07:38:30;2.97;;;1.83;;
12451;SDS011;6291;48.924;12.204;2023-07-20T07:43:54;4.38;;;2.38;;
12451;SDS011;6291;48.924;12.204;2023-07-20T07:48:57;2.87;;;1.77;;
12451;SDS011;6291;48.924;12.204;2023-07-20T07:54:02;4.00;;;1.63;;
12451;SDS011;6291;48.924;12.204;2023-07-20T07:59:05;3.60;;;1.70;;
12451;SDS011;6291;48.924;12.204;2023-07-20T08:04:09;3.72;;;1.88;;
12451;SDS011;6291;48.924;12.204;2023-07-20T08:09:13;3.03;;;1.70;;
12451;SDS011;6291;48.924;12.204;2023-07-20T08:14:16;2.70;;;1.70;;
12451;SDS011;6291;48.924;12.204;2023-07-20T08:19:20;2.88;;;1.63;;
12451;SDS011;6291;48.924;12.204;2023-07-20T08:24:26;2.53;;;1.65;;
12451;SDS011;6291;48.924;12.204;2023-07-20T08:29:30;3.97;;;1.60;;
12451;SDS011;6291;48.924;12.204;2023-07-20T08:34:33;2.90;;;1.60;;
12451;SDS011;6291;48.924;12.204;2023-07-20T08:39:38;2.38;;;1.50;;
12451;SDS011;6291;48.924;12.204;2023-07-20T08:44:42;2.33;;;1.40;;
12451;SDS011;6291;48.924;12.204;2023-07-20T08:49:47;5.10;;;1.43;;
12451;SDS011;6291;48.924;12.204;2023-07-20T08:54:53;2.73;;;1.60;;
12451;SDS011;6291;48.924;12.204;2023-07-20T08:59:56;3.13;;;1.33;;
12451;SDS011;6291;48.924;12.204;2023-07-20T09:05:00;2.27;;;1.30;;
12451;SDS011;6291;48.924;12.204;2023-07-20T09:10:05;1.70;;;1.20;;
12451;SDS011;6291;48.924;12.204;2023-07-20T09:15:10;1.88;;;1.02;;
12451;SDS011;6291;48.924;12.204;2023-07-20T09:20:15;3.10;;;1.23;;
12451;SDS011;6291;48.924;12.204;2023-07-20T09:25:25;1.35;;;0.90;;
12451;SDS011;6291;48.924;12.204;2023-07-20T09:30:32;1.58;;;1.20;;
12451;SDS011;6291;48.924;12.204;2023-07-20T09:35:36;1.60;;;1.10;;
12451;SDS011;6291;48.924;12.204;2023-07-20T09:40:45;1.60;;;1.10;;
12451;SDS011;6291;48.924;12.204;2023-07-20T09:45:51;1.73;;;1.00;;
12451;SDS011;6291;48.924;12.204;2023-07-20T09:51:00;1.47;;;1.00;;
12451;SDS011;6291;48.924;12.204;2023-07-20T09:56:07;2.47;;;1.30;;
12451;SDS011;6291;48.924;12.204;2023-07-20T10:01:12;1.88;;;1.00;;
12451;SDS011;6291;48.924;12.204;2023-07-20T10:06:23;2.70;;;1.30;;
12451;SDS011;6291;48.924;12.204;2023-07-20T10:11:29;3.33;;;1.15;;
12451;SDS011;6291;48.924;12.204;2023-07-20T10:16:34;3.13;;;1.08;;
12451;SDS011;6291;48.924;12.204;2023-07-20T10:21:40;1.25;;;1.02;;
12451;SDS011;6291;48.924;12.204;2023-07-20T10:26:52;2.67;;;1.07;;
12451;SDS011;6291;48.924;12.204;2023-07-20T10:31:57;2.07;;;1.03;;
12451;SDS011;6291;48.924;12.204;2023-07-20T10:37:01;2.25;;;1.35;;
12451;SDS011;6291;48.924;12.204;2023-07-20T10:42:07;3.28;;;1.20;;
12451;SDS011;6291;48.924;12.204;2023-07-20T10:47:12;1.90;;;1.10;;
12451;SDS011;6291;48.924;12.204;2023-07-20T10:52:16;2.83;;;1.30;;
12451;SDS011;6291;48.924;12.204;2023-07-20T10:57:29;2.80;;;1.03;;
12451;SDS011;6291;48.924;12.204;2023-07-20T11:02:41;3.50;;;1.10;;
12451;SDS011;6291;48.924;12.204;2023-07-20T11:07:45;2.65;;;1.25;;
12451;SDS011;6291;48.924;12.204;2023-07-20T11:18:25;2.25;;;1.38;;
12451;SDS011;6291;48.924;12.204;2023-07-20T11:23:29;2.10;;;1.27;;
12451;SDS011;6291;48.924;12.204;2023-07-20T11:28:35;2.10;;;0.90;;
12451;SDS011;6291;48.924;12.204;2023-07-20T11:33:39;1.40;;;0.90;;
12451;SDS011;6291;48.924;12.204;2023-07-20T11:38:42;2.75;;;1.00;;
12451;SDS011;6291;48.924;12.204;2023-07-20T11:43:47;1.90;;;0.90;;
12451;SDS011;6291;48.924;12.204;2023-07-20T11:48:55;1.70;;;1.00;;
12451;SDS011;6291;48.924;12.204;2023-07-20T11:54:00;2.25;;;1.10;;
12451;SDS011;6291;48.924;12.204;2023-07-20T11:59:06;2.40;;;1.00;;
12451;SDS011;6291;48.924;12.204;2023-07-20T12:04:09;2.03;;;1.15;;
12451;SDS011;6291;48.924;12.204;2023-07-20T12:09:13;1.83;;;1.10;;
12451;SDS011;6291;48.924;12.204;2023-07-20T12:14:20;1.37;;;0.80;;
12451;SDS011;6291;48.924;12.204;2023-07-20T12:19:24;1.58;;;1.13;;
12451;SDS011;6291;48.924;12.204;2023-07-20T12:24:28;1.23;;;1.13;;
12451;SDS011;6291;48.924;12.204;2023-07-20T12:29:34;1.98;;;1.00;;
12451;SDS011;6291;48.924;12.204;2023-07-20T12:34:38;1.47;;;1.20;;
12451;SDS011;6291;48.924;12.204;2023-07-20T12:39:42;1.27;;;0.90;;
12451;SDS011;6291;48.924;12.204;2023-07-20T12:44:50;2.07;;;1.10;;
12451;SDS011;6291;48.924;12.204;2023-07-20T12:49:53;2.00;;;1.20;;
12451;SDS011;6291;48.924;12.204;2023-07-20T12:54:58;1.93;;;1.00;;
12451;SDS011;6291;48.924;12.204;2023-07-20T13:00:06;2.30;;;1.05;;
12451;SDS011;6291;48.924;12.204;2023-07-20T13:05:13;2.13;;;1.02;;
12451;SDS011;6291;48.924;12.204;2023-07-20T13:10:17;1.77;;;1.15;;
12451;SDS011;6291;48.924;12.204;2023-07-20T13:15:24;1.80;;;1.00;;
12451;SDS011;6291;48.924;12.204;2023-07-20T13:20:32;1.10;;;1.00;;
12451;SDS011;6291;48.924;12.204;2023-07-20T13:25:35;1.70;;;1.00;;
12451;SDS011;6291;48.924;12.204;2023-07-20T13:30:40;0.88;;;0.80;;
12451;SDS011;6291;48.924;12.204;2023-07-20T13:35:46;1.60;;;0.90;;
12451;SDS011;6291;48.924;12.204;2023-07-20T13:40:50;1.30;;;1.00;;
12451;SDS011;6291;48.924;12.204;2023-07-20T13:45:55;1.10;;;0.85;;
12451;SDS011;6291;48.924;12.204;2023-07-20T13:50:58;1.10;;;0.97;;
12451;SDS011;6291;48.924;12.204;2023-07-20T13:56:02;1.70;;;0.95;;
12451;SDS011;6291;48.924;12.204;2023-07-20T14:01:10;2.47;;;0.98;;
12451;SDS011;6291;48.924;12.204;2023-07-20T14:06:13;1.70;;;0.85;;
12451;SDS011;6291;48.924;12.204;2023-07-20T14:11:20;1.98;;;0.80;;
12451;SDS011;6291;48.924;12.204;2023-07-20T14:16:27;1.38;;;1.05;;
12451;SDS011;6291;48.924;12.204;2023-07-20T14:21:33;1.90;;;0.90;;
12451;SDS011;6291;48.924;12.204;2023-07-20T14:26:39;4.13;;;2.58;;
12451;SDS011;6291;48.924;12.204;2023-07-20T14:31:46;1.20;;;0.97;;
12451;SDS011;6291;48.924;12.204;2023-07-20T14:36:54;1.55;;;0.90;;
12451;SDS011;6291;48.924;12.204;2023-07-20T14:41:57;1.70;;;1.03;;
12451;SDS011;6291;48.924;12.204;2023-07-20T14:47:02;2.75;;;0.95;;
12451;SDS011;6291;48.924;12.204;2023-07-20T14:52:15;1.20;;;0.80;;
12451;SDS011;6291;48.924;12.204;2023-07-20T14:57:19;3.30;;;1.20;;
12451;SDS011;6291;48.924;12.204;2023-07-20T15:02:26;1.67;;;1.00;;
12451;SDS011;6291;48.924;12.204;2023-07-20T15:07:29;1.43;;;0.90;;
12451;SDS011;6291;48.924;12.204;2023-07-20T15:12:32;1.70;;;1.10;;
12451;SDS011;6291;48.924;12.204;2023-07-20T15:17:38;2.13;;;0.80;;
12451;SDS011;6291;48.924;12.204;2023-07-20T15:22:42;1.35;;;0.85;;
12451;SDS011;6291;48.924;12.204;2023-07-20T15:27:50;1.75;;;1.00;;
12451;SDS011;6291;48.924;12.204;2023-07-20T15:32:56;1.33;;;0.93;;
12451;SDS011;6291;48.924;12.204;2023-07-20T15:38:02;1.63;;;1.10;;
12451;SDS011;6291;48.924;12.204;2023-07-20T15:43:06;1.97;;;0.93;;
12451;SDS011;6291;48.924;12.204;2023-07-20T15:48:13;1.67;;;1.07;;
12451;SDS011;6291;48.924;12.204;2023-07-20T15:53:17;1.10;;;0.90;;
12451;SDS011;6291;48.924;12.204;2023-07-20T15:58:20;1.77;;;0.98;;
12451;SDS011;6291;48.924;12.204;2023-07-20T16:03:26;2.07;;;1.00;;
12451;SDS011;6291;48.924;12.204;2023-07-20T16:08:38;1.30;;;0.93;;
12451;SDS011;6291;48.924;12.204;2023-07-20T16:13:42;1.80;;;1.10;;
12451;SDS011;6291;48.924;12.204;2023-07-20T16:18:47;1.47;;;1.13;;
12451;SDS011;6291;48.924;12.204;2023-07-20T16:23:52;2.72;;;1.35;;
12451;SDS011;6291;48.924;12.204;2023-07-20T16:28:55;1.30;;;1.00;;
12451;SDS011;6291;48.924;12.204;2023-07-20T16:34:03;2.03;;;0.80;;
12451;SDS011;6291;48.924;12.204;2023-07-20T16:39:07;1.70;;;1.10;;
12451;SDS011;6291;48.924;12.204;2023-07-20T16:44:15;1.55;;;0.88;;
12451;SDS011;6291;48.924;12.204;2023-07-20T16:49:19;2.47;;;1.00;;
12451;SDS011;6291;48.924;12.204;2023-07-20T16:54:23;1.63;;;1.10;;
12451;SDS011;6291;48.924;12.204;2023-07-20T16:59:27;1.80;;;1.00;;
12451;SDS011;6291;48.924;12.204;2023-07-20T17:04:32;2.20;;;1.00;;
12451;SDS011;6291;48.924;12.204;2023-07-20T17:09:35;1.70;;;1.10;;
12451;SDS011;6291;48.924;12.204;2023-07-20T17:14:39;1.60;;;1.00;;
12451;SDS011;6291;48.924;12.204;2023-07-20T17:19:44;1.88;;;1.00;;
12451;SDS011;6291;48.924;12.204;2023-07-20T17:24:47;3.33;;;1.10;;
12451;SDS011;6291;48.924;12.204;2023-07-20T17:29:53;1.15;;;1.00;;
12451;SDS011;6291;48.924;12.204;2023-07-20T17:35:01;2.00;;;1.10;;
12451;SDS011;6291;48.924;12.204;2023-07-20T17:40:09;1.70;;;1.08;;
12451;SDS011;6291;48.924;12.204;2023-07-20T17:45:16;2.00;;;1.20;;
12451;SDS011;6291;48.924;12.204;2023-07-20T17:50:20;2.13;;;1.08;;
12451;SDS011;6291;48.924;12.204;2023-07-20T17:55:24;3.10;;;1.10;;
12451;SDS011;6291;48.924;12.204;2023-07-20T18:00:27;2.17;;;1.05;;
12451;SDS011;6291;48.924;12.204;2023-07-20T18:05:36;2.53;;;1.00;;
12451;SDS011;6291;48.924;12.204;2023-07-20T18:10:39;1.92;;;1.55;;
12451;SDS011;6291;48.924;12.204;2023-07-20T18:15:42;1.88;;;1.05;;
12451;SDS011;6291;48.924;12.204;2023-07-20T18:20:47;1.50;;;1.10;;
12451;SDS011;6291;48.924;12.204;2023-07-20T18:25:51;3.50;;;1.70;;
12451;SDS011;6291;48.924;12.204;2023-07-20T18:30:54;2.83;;;1.20;;
12451;SDS011;6291;48.924;12.204;2023-07-20T18:35:59;4.20;;;1.00;;
12451;SDS011;6291;48.924;12.204;2023-07-20T18:41:03;3.03;;;1.02;;
12451;SDS011;6291;48.924;12.204;2023-07-20T18:46:06;1.60;;;1.00;;
12451;SDS011;6291;48.924;12.204;2023-07-20T18:51:11;2.80;;;1.00;;
12451;SDS011;6291;48.924;12.204;2023-07-20T18:56:15;1.98;;;1.00;;
12451;SDS011;6291;48.924;12.204;2023-07-20T19:01:18;1.80;;;1.03;;
12451;SDS011;6291;48.924;12.204;2023-07-20T19:06:23;2.33;;;0.90;;
12451;SDS011;6291;48.924;12.204;2023-07-20T19:11:26;2.13;;;1.10;;
12451;SDS011;6291;48.924;12.204;2023-07-20T19:16:32;2.47;;;1.10;;
12451;SDS011;6291;48.924;12.204;2023-07-20T19:21:38;5.53;;;1.30;;
12451;SDS011;6291;48.924;12.204;2023-07-20T19:26:41;4.83;;;1.33;;
12451;SDS011;6291;48.924;12.204;2023-07-20T19:31:45;4.28;;;1.50;;
12451;SDS011;6291;48.924;12.204;2023-07-20T19:36:49;5.22;;;1.35;;
12451;SDS011;6291;48.924;12.204;2023-07-20T19:41:53;5.03;;;1.60;;
12451;SDS011;6291;48.924;12.204;2023-07-20T19:46:57;4.15;;;1.30;;
12451;SDS011;6291;48.924;12.204;2023-07-20T19:52:03;7.43;;;1.50;;
12451;SDS011;6291;48.924;12.204;2023-07-20T19:57:07;5.43;;;1.40;;
12451;SDS011;6291;48.924;12.204;2023-07-20T20:02:14;5.07;;;1.50;;
12451;SDS011;6291;48.924;12.204;2023-07-20T20:07:19;8.52;;;1.58;;
12451;SDS011;6291;48.924;12.204;2023-07-20T20:12:23;3.63;;;1.43;;
12451;SDS011;6291;48.924;12.204;2023-07-20T20:17:26;12.18;;;2.10;;
12451;SDS011;6291;48.924;12.204;2023-07-20T20:22:31;9.00;;;1.90;;
12451;SDS011;6291;48.924;12.204;2023-07-20T20:27:35;9.35;;;2.22;;
12451;SDS011;6291;48.924;12.204;2023-07-20T20:32:41;4.43;;;2.13;;
12451;SDS011;6291;48.924;12.204;2023-07-20T20:37:46;5.40;;;1.97;;
12451;SDS011;6291;48.924;12.204;2023-07-20T20:42:49;5.35;;;2.50;;
12451;SDS011;6291;48.924;12.204;2023-07-20T20:47:53;7.53;;;2.97;;
12451;SDS011;6291;48.924;12.204;2023-07-20T20:53:04;9.97;;;2.97;;
12451;SDS011;6291;48.924;12.204;2023-07-20T20:58:07;9.02;;;3.00;;
12451;SDS011;6291;48.924;12.204;2023-07-20T21:03:11;7.05;;;2.70;;
12451;SDS011;6291;48.924;12.204;2023-07-20T21:08:16;8.98;;;2.80;;
12451;SDS011;6291;48.924;12.204;2023-07-20T21:13:19;6.15;;;2.60;;
12451;SDS011;6291;48.924;12.204;2023-07-20T21:18:23;6.10;;;2.60;;
12451;SDS011;6291;48.924;12.204;2023-07-20T21:23:28;7.10;;;2.28;;
12451;SDS011;6291;48.924;12.204;2023-07-20T21:28:31;3.90;;;2.25;;
12451;SDS011;6291;48.924;12.204;2023-07-20T21:33:36;5.57;;;2.23;;
12451;SDS011;6291;48.924;12.204;2023-07-20T21:38:40;3.70;;;2.13;;
12451;SDS011;6291;48.924;12.204;2023-07-20T21:43:44;7.17;;;2.03;;
12451;SDS011;6291;48.924;12.204;2023-07-20T21:48:47;6.33;;;2.07;;
12451;SDS011;6291;48.924;12.204;2023-07-20T21:53:52;5.07;;;2.40;;
12451;SDS011;6291;48.924;12.204;2023-07-20T21:58:55;4.63;;;1.90;;
12451;SDS011;6291;48.924;12.204;2023-07-20T22:03:59;3.67;;;1.70;;
12451;SDS011;6291;48.924;12.204;2023-07-20T22:09:04;5.32;;;2.10;;
12451;SDS011;6291;48.924;12.204;2023-07-20T22:14:08;7.22;;;1.83;;
12451;SDS011;6291;48.924;12.204;2023-07-20T22:19:11;4.22;;;2.10;;
12451;SDS011;6291;48.924;12.204;2023-07-20T22:24:22;4.90;;;1.90;;
12451;SDS011;6291;48.924;12.204;2023-07-20T22:29:26;4.47;;;2.08;;
12451;SDS011;6291;48.924;12.204;2023-07-20T22:34:32;3.00;;;1.90;;
12451;SDS011;6291;48.924;12.204;2023-07-20T22:39:37;5.13;;;1.75;;
12451;SDS011;6291;48.924;12.204;2023-07-20T22:44:40;2.30;;;1.60;;
12451;SDS011;6291;48.924;12.204;2023-07-20T22:49:44;2.97;;;1.80;;
12451;SDS011;6291;48.924;12.204;2023-07-20T22:54:49;2.55;;;1.67;;
12451;SDS011;6291;48.924;12.204;2023-07-20T22:59:52;3.50;;;1.67;;
12451;SDS011;6291;48.924;12.204;2023-07-20T23:04:55;3.33;;;1.70;;
12451;SDS011;6291;48.924;12.204;2023-07-20T23:10:00;3.45;;;1.70;;
12451;SDS011;6291;48.924;12.204;2023-07-20T23:15:04;2.92;;;1.70;;
12451;SDS011;6291;48.924;12.204;2023-07-20T23:20:10;4.40;;;1.95;;
12451;SDS011;6291;48.924;12.204;2023-07-20T23:25:21;2.80;;;1.77;;
12451;SDS011;6291;48.924;12.204;2023-07-20T23:30:25;2.38;;;1.70;;
12451;SDS011;6291;48.924;12.204;2023-07-20T23:35:29;2.67;;;1.80;;
12451;SDS011;6291;48.924;12.204;2023-07-20T23:40:35;6.30;;;1.80;;
12451;SDS011;6291;48.924;12.204;2023-07-20T23:45:38;5.78;;;2.00;;
12451;SDS011;6291;48.924;12.204;2023-07-20T23:50:41;2.28;;;1.80;;
12451;SDS011;6291;48.924;12.204;2023-07-20T23:55:46;4.33;;;1.90;;
